createdAt,value
2019-04-06T00:04:46.312Z," 8.12"
2019-04-06T00:09:43.127Z," 8.10"
2019-04-06T00:14:38.589Z," 8.10"
2019-04-06T00:19:34.149Z," 8.05"
2019-04-06T00:24:30.794Z," 8.13"
2019-04-06T00:29:27.148Z," 8.06"
2019-04-06T00:34:22.907Z," 8.09"
2019-04-06T00:39:18.354Z," 8.12"
2019-04-06T00:44:13.968Z," 8.13"
2019-04-06T00:49:10.980Z," 8.08"
2019-04-06T00:54:06.497Z," 8.12"
2019-04-06T00:59:03.194Z," 8.12"
2019-04-06T01:03:58.564Z," 8.08"
2019-04-06T01:08:55.311Z," 8.05"
2019-04-06T01:13:50.910Z," 8.08"
2019-04-06T01:18:46.611Z," 8.10"
2019-04-06T01:23:42.197Z," 8.12"
2019-04-06T01:28:38.506Z," 8.10"
2019-04-06T01:33:35.374Z," 8.08"
2019-04-06T01:38:30.687Z," 8.09"
2019-04-06T01:43:26.381Z," 8.13"
2019-04-06T01:48:22.097Z," 8.15"
2019-04-06T01:53:17.826Z," 8.13"
2019-04-06T01:58:14.313Z," 8.12"
2019-04-06T02:03:09.438Z," 8.23"
2019-04-06T02:08:05.118Z," 8.00"
2019-04-06T02:13:00.845Z," 8.10"
2019-04-06T02:17:56.184Z," 8.09"
2019-04-06T02:22:52.004Z," 8.12"
2019-04-06T02:27:47.889Z," 8.18"
2019-04-06T02:32:43.621Z," 8.08"
2019-04-06T02:37:39.191Z," 8.15"
2019-04-06T02:42:34.985Z," 8.10"
2019-04-06T02:47:31.077Z," 8.20"
2019-04-06T02:52:26.578Z," 8.24"
2019-04-06T02:57:22.561Z," 8.15"
2019-04-06T03:02:18.567Z," 8.28"
2019-04-06T03:07:15.148Z," 8.19"
2019-04-06T03:12:10.663Z," 8.24"
2019-04-06T03:17:06.491Z," 8.20"
2019-04-06T03:22:02.238Z," 8.20"
2019-04-06T03:27:01.956Z," 8.24"
2019-04-06T03:31:57.248Z," 8.28"
2019-04-06T03:36:53.036Z," 8.34"
2019-04-06T03:41:49.828Z," 8.31"
2019-04-06T03:46:45.519Z," 8.30"
2019-04-06T03:51:41.179Z," 8.41"
2019-04-06T03:56:37.656Z," 8.42"
2019-04-06T04:01:33.213Z," 8.38"
2019-04-06T04:06:29.307Z," 8.34"
2019-04-06T04:11:25.745Z," 8.52"
2019-04-06T04:16:21.880Z," 8.55"
2019-04-06T04:21:17.792Z," 8.45"
2019-04-06T04:26:13.458Z," 8.38"
2019-04-06T04:31:08.882Z," 8.48"
2019-04-06T04:36:04.726Z," 8.56"
2019-04-06T04:41:00.505Z," 8.61"
2019-04-06T04:45:56.459Z," 8.63"
2019-04-06T04:50:52.269Z," 8.55"
2019-04-06T04:55:48.009Z," 8.61"
2019-04-06T05:00:43.936Z," 8.69"
2019-04-06T05:05:39.586Z," 8.69"
2019-04-06T05:10:36.135Z," 8.66"
2019-04-06T05:15:33.233Z," 8.63"
2019-04-06T05:20:29.000Z," 8.64"
2019-04-06T05:25:25.055Z," 8.70"
2019-04-06T05:30:21.477Z," 8.69"
2019-04-06T05:35:17.383Z," 8.63"
2019-04-06T05:40:13.999Z," 8.64"
2019-04-06T05:45:10.125Z," 8.70"
2019-04-06T05:50:06.625Z," 8.71"
2019-04-06T05:55:02.050Z," 8.84"
2019-04-06T05:59:57.805Z," 8.82"
2019-04-06T06:04:53.997Z," 8.87"
2019-04-06T06:09:49.840Z," 8.92"
2019-04-06T06:14:47.387Z," 8.92"
2019-04-06T06:19:44.129Z," 9.10"
2019-04-06T06:24:39.597Z," 9.13"
2019-04-06T06:29:36.676Z," 9.29"
2019-04-06T06:34:32.499Z," 9.36"
2019-04-06T06:39:28.528Z," 9.48"
2019-04-06T06:44:24.577Z," 9.48"
2019-04-06T06:49:20.199Z," 9.56"
2019-04-06T06:54:16.668Z," 9.68"
2019-04-06T06:59:12.723Z," 9.74"
2019-04-06T07:04:08.572Z," 9.72"
2019-04-06T07:09:04.645Z," 9.84"
2019-04-06T07:14:00.507Z," 9.99"
2019-04-06T07:18:56.234Z,10.02
2019-04-06T07:23:52.188Z,10.01
2019-04-06T07:28:47.957Z,10.25
2019-04-06T07:33:43.343Z,10.35
2019-04-06T07:38:39.719Z,10.35
2019-04-06T07:43:36.537Z,10.35
2019-04-06T07:48:32.089Z,10.40
2019-04-06T07:53:29.449Z,10.38
2019-04-06T07:58:25.890Z,10.44
2019-04-06T08:03:22.209Z,10.46
2019-04-06T08:08:18.339Z,10.54
2019-04-06T08:13:15.252Z,10.67
2019-04-06T08:18:11.115Z,10.74
2019-04-06T08:23:06.955Z,10.75
2019-04-06T08:28:02.739Z,10.81
2019-04-06T08:32:59.280Z,11.07
2019-04-06T08:37:55.194Z,11.14
2019-04-06T08:42:51.123Z,11.22
2019-04-06T08:47:47.433Z,11.41
2019-04-06T08:52:43.573Z,11.52
2019-04-06T08:57:40.125Z,11.87
2019-04-06T09:02:36.456Z,12.06
2019-04-06T09:07:32.689Z,12.32
2019-04-06T09:12:28.704Z,12.53
2019-04-06T09:17:24.992Z,12.70
2019-04-06T09:22:21.144Z,12.67
2019-04-06T09:27:17.199Z,12.95
2019-04-06T09:32:13.295Z,12.82
2019-04-06T09:37:08.677Z,12.45
2019-04-06T09:42:04.275Z,12.54
2019-04-06T09:47:00.924Z,12.90
2019-04-06T09:51:57.136Z,13.03
2019-04-06T09:56:54.903Z,12.90
2019-04-06T10:01:50.608Z,13.19
2019-04-06T10:06:46.603Z,13.38
2019-04-06T10:11:42.690Z,13.46
2019-04-06T10:16:39.324Z,14.08
2019-04-06T10:21:35.857Z,13.85
2019-04-06T10:26:32.369Z,14.11
2019-04-06T10:31:28.388Z,13.89
2019-04-06T10:36:24.022Z,13.85
2019-04-06T10:41:19.243Z,13.59
2019-04-06T10:46:16.009Z,13.85
2019-04-06T10:51:13.286Z,13.85
2019-04-06T10:56:11.559Z,14.48
2019-04-06T11:01:08.610Z,14.72
2019-04-06T11:06:05.236Z,15.67
2019-04-06T11:11:02.779Z,15.86
2019-04-06T11:15:59.672Z,15.80
2019-04-06T11:20:56.649Z,15.88
2019-04-06T11:25:51.636Z,15.70
2019-04-06T11:30:46.783Z,15.57
2019-04-06T11:35:43.360Z,15.00
2019-04-06T11:40:38.647Z,15.11
2019-04-06T11:45:34.742Z,15.22
2019-04-06T11:50:30.905Z,15.68
2019-04-06T11:55:27.349Z,15.90
2019-04-06T12:00:26.907Z,16.08
2019-04-06T12:05:23.311Z,16.35
2019-04-06T12:10:19.396Z,16.56
2019-04-06T12:15:15.381Z,16.20
2019-04-06T12:20:12.827Z,16.41
2019-04-06T12:25:09.033Z,16.79
2019-04-06T12:30:06.293Z,16.90
2019-04-06T12:35:02.027Z,17.14
2019-04-06T12:39:57.950Z,17.26
2019-04-06T12:44:54.794Z,17.56
2019-04-06T12:49:50.973Z,17.42
2019-04-06T12:54:46.625Z,17.41
2019-04-06T12:59:41.842Z,16.75
2019-04-06T13:04:37.148Z,16.74
2019-04-06T13:09:33.269Z,17.24
2019-04-06T13:14:28.988Z,16.75
2019-04-06T13:19:24.699Z,16.65
2019-04-06T13:24:21.045Z,17.04
2019-04-06T13:29:17.534Z,16.93
2019-04-06T13:34:13.142Z,17.09
2019-04-06T13:39:09.067Z,17.20
2019-04-06T13:44:05.027Z,16.69
2019-04-06T13:49:00.945Z,16.75
2019-04-06T13:53:56.565Z,17.26
2019-04-06T13:58:52.788Z,17.31
2019-04-06T14:03:48.682Z,17.67
2019-04-06T14:08:44.678Z,17.49
2019-04-06T14:13:40.977Z,17.85
2019-04-06T14:18:37.010Z,17.78
2019-04-06T14:23:33.186Z,17.51
2019-04-06T14:28:29.667Z,17.46
2019-04-06T14:33:25.394Z,17.57
2019-04-06T14:38:20.608Z,17.65
2019-04-06T14:43:16.444Z,17.65
2019-04-06T14:48:12.638Z,17.65
2019-04-06T14:53:09.650Z,17.67
2019-04-06T14:58:05.288Z,17.64
2019-04-06T15:03:01.514Z,17.79
2019-04-06T15:07:57.559Z,17.97
2019-04-06T15:12:53.171Z,17.94
2019-04-06T15:17:48.852Z,18.05
2019-04-06T15:22:45.516Z,18.11
2019-04-06T15:27:41.860Z,18.16
2019-04-06T15:32:38.415Z,18.16
2019-04-06T15:37:34.314Z,18.15
2019-04-06T15:42:29.959Z,18.35
2019-04-06T15:47:25.595Z,18.34
2019-04-06T15:52:22.648Z,18.11
2019-04-06T15:57:18.458Z,18.19
2019-04-06T16:02:14.813Z,18.15
2019-04-06T16:07:10.809Z,18.11
2019-04-06T16:12:06.749Z,18.15
2019-04-06T16:17:03.980Z,18.15
2019-04-06T16:21:59.615Z,18.25
2019-04-06T16:26:55.844Z,18.34
2019-04-06T16:31:51.510Z,18.33
2019-04-06T16:36:48.849Z,18.23
2019-04-06T16:41:44.387Z,18.20
2019-04-06T16:46:40.292Z,17.98
2019-04-06T16:51:36.563Z,18.04
2019-04-06T16:56:32.156Z,17.94
2019-04-06T17:01:27.777Z,17.94
2019-04-06T17:06:23.682Z,17.97
2019-04-06T17:11:19.843Z,17.76
2019-04-06T17:16:15.874Z,17.63
2019-04-06T17:21:12.914Z,17.51
2019-04-06T17:26:08.385Z,17.44
2019-04-06T17:31:05.149Z,17.30
2019-04-06T17:36:02.535Z,17.34
2019-04-06T17:40:58.224Z,17.26
2019-04-06T17:45:54.442Z,17.09
2019-04-06T17:50:51.326Z,17.06
2019-04-06T17:55:46.898Z,16.87
2019-04-06T18:00:43.515Z,16.76
2019-04-06T18:05:39.222Z,16.75
2019-04-06T18:10:35.828Z,16.56
2019-04-06T18:15:31.541Z,16.60
2019-04-06T18:20:27.608Z,16.49
2019-04-06T18:25:23.453Z,16.32
2019-04-06T18:30:19.074Z,16.31
2019-04-06T18:35:16.661Z,16.21
2019-04-06T18:40:12.394Z,16.31
2019-04-06T18:45:07.980Z,16.33
2019-04-06T18:50:04.907Z,16.17
2019-04-06T18:55:01.514Z,16.10
2019-04-06T18:59:57.137Z,15.94
2019-04-06T19:04:53.073Z,15.91
2019-04-06T19:09:49.776Z,15.80
2019-04-06T19:14:45.240Z,15.67
2019-04-06T19:19:42.176Z,15.61
2019-04-06T19:24:37.520Z,15.47
2019-04-06T19:29:33.973Z,15.36
2019-04-06T19:34:30.746Z,15.33
2019-04-06T19:39:27.346Z,15.33
2019-04-06T19:44:22.809Z,15.22
2019-04-06T19:49:19.567Z,15.19
2019-04-06T19:54:15.032Z,15.10
2019-04-06T19:59:12.929Z,15.21
2019-04-06T20:04:09.257Z,15.00
2019-04-06T20:09:05.214Z,14.86
2019-04-06T20:14:00.639Z,14.81
2019-04-06T20:18:58.597Z,14.68
2019-04-06T20:23:54.986Z,14.66
2019-04-06T20:28:50.402Z,14.72
2019-04-06T20:33:51.374Z,14.65
2019-04-06T20:38:47.143Z,14.50
2019-04-06T20:43:43.065Z,14.44
2019-04-06T20:48:38.799Z,14.41
2019-04-06T20:53:35.391Z,14.29
2019-04-06T20:58:31.291Z,14.32
2019-04-06T21:03:27.046Z,14.12
2019-04-06T21:08:23.298Z,14.07
2019-04-06T21:13:20.236Z,13.83
2019-04-06T21:18:16.574Z,13.81
2019-04-06T21:23:12.857Z,13.74
2019-04-06T21:28:11.691Z,13.85
2019-04-06T21:33:06.822Z,13.65
2019-04-06T21:38:02.765Z,13.52
2019-04-06T21:42:58.944Z,13.42
2019-04-06T21:47:55.754Z,13.27
2019-04-06T21:52:50.922Z,13.35
2019-04-06T21:57:47.799Z,13.12
2019-04-06T22:02:43.727Z,13.08
2019-04-06T22:07:48.091Z,12.98
2019-04-06T22:12:39.945Z,12.83
2019-04-06T22:17:35.981Z,12.78
2019-04-06T22:22:31.700Z,12.72
2019-04-06T22:27:27.795Z,12.78
2019-04-06T22:32:23.374Z,12.78
2019-04-06T22:37:19.582Z,12.64
2019-04-06T22:42:15.454Z,12.54
2019-04-06T22:47:11.333Z,12.55
2019-04-06T22:52:07.946Z,12.53
2019-04-06T22:57:04.366Z,12.46
2019-04-06T23:02:00.947Z,12.46
2019-04-06T23:06:57.678Z,12.45
2019-04-06T23:11:54.152Z,12.42
2019-04-06T23:16:50.679Z,12.36
2019-04-06T23:21:46.591Z,12.42
2019-04-06T23:26:42.258Z,12.35
2019-04-06T23:31:38.449Z,12.36
2019-04-06T23:36:34.067Z,12.29
2019-04-06T23:41:29.636Z,12.18
2019-04-06T23:46:25.727Z,12.17
2019-04-06T23:51:21.277Z,12.07
2019-04-06T23:56:17.115Z,12.07
